MYNN

Lynden Pindling International Airport

Nassau, , Bahamas
MYNN 170510Z 1706/1806 04009KT 9999 FEW018 BECMG 1712/1714 04012KT
Issued Valid From Valid To
Nov-17 @ 05:10 UTC
(5 hours ago)
Nov-17 @ 06:00 UTC
(4 hours ago)
Nov-18 @ 06:00 UTC
(in 20 hours)
Nov-17 @ 06:00 to Nov-17 @ 12:00
MYNN 170510Z 1706/1806 04009KT 9999 FEW018
Wind Visibility Clouds
40° at 9 knots 10,000+ meters
  • Few at 1,800' AGL
Becoming Nov-17 @ 12:00 to Nov-18 @ 06:00
BECMG 1712/1714 04012KT
Wind Visibility Clouds
40° at 12 knots 10,000+ meters
  • Few at 1,800' AGL
MYNN 170510Z 1706/1806 04009KT 9999 FEW018 BECMG 1712/1714 04012KT
Issued Nov-17 @ 05:10 UTC
(5 hours ago)
Valid From Nov-17 @ 06:00 UTC
(4 hours ago)
Valid To Nov-18 @ 06:00 UTC
(in 20 hours)
Nov-17 @ 06:00 - Nov-17 @ 12:00
Wind Visibility
40° at 9 knots 10,000+ meters
Clouds
  • Few at 1,800' AGL
Becoming Nov-17 @ 12:00 - Nov-18 @ 06:00
Wind Visibility
40° at 12 knots 10,000+ meters
Clouds
  • Few at 1,800' AGL